createdAt,value
2016-05-17T00:00:53.265Z,994.96
2016-05-17T00:01:53.268Z,994.97
2016-05-17T00:02:53.271Z,994.95
2016-05-17T00:03:53.273Z,994.99
2016-05-17T00:04:53.308Z,994.96
2016-05-17T00:05:53.278Z,994.97
2016-05-17T00:06:53.485Z,994.98
2016-05-17T00:07:53.284Z,994.97
2016-05-17T00:08:53.490Z,994.98
2016-05-17T00:09:53.352Z,994.95
2016-05-17T00:10:53.277Z,994.92
2016-05-17T00:11:53.311Z,994.9
2016-05-17T00:12:53.517Z,994.94
2016-05-17T00:13:53.285Z,994.91
2016-05-17T00:14:53.725Z,994.91
2016-05-17T00:15:53.305Z,994.88
2016-05-17T00:17:53.296Z,994.9
2016-05-17T00:18:53.298Z,994.9
2016-05-17T00:19:53.302Z,994.94
2016-05-17T00:20:53.304Z,994.94
2016-05-17T00:22:53.325Z,994.92
2016-05-17T00:23:53.499Z,994.97
2016-05-17T00:24:53.299Z,994.91
2016-05-17T00:25:53.301Z,994.98
2016-05-17T00:26:53.320Z,994.97
2016-05-17T00:27:53.307Z,994.96
2016-05-17T00:28:53.310Z,994.95
2016-05-17T00:29:53.515Z,994.96
2016-05-17T00:31:53.302Z,994.91
2016-05-17T00:32:53.509Z,994.9
2016-05-17T00:33:53.323Z,994.9
2016-05-17T00:34:53.325Z,994.9
2016-05-17T00:35:53.328Z,994.93
2016-05-17T00:36:53.409Z,994.92
2016-05-17T00:37:53.319Z,994.93
2016-05-17T00:39:53.339Z,994.92
2016-05-17T00:41:53.329Z,994.9
2016-05-17T00:42:53.332Z,994.92
2016-05-17T00:43:53.335Z,994.96
2016-05-17T00:44:53.322Z,994.94
2016-05-17T00:45:53.341Z,994.98
2016-05-17T00:47:53.346Z,994.92
2016-05-17T00:48:53.333Z,994.86
2016-05-17T00:49:53.335Z,994.89
2016-05-17T00:50:53.337Z,994.89
2016-05-17T00:51:53.340Z,994.85
2016-05-17T00:52:53.343Z,994.9
2016-05-17T00:53:53.549Z,994.88
2016-05-17T00:54:53.348Z,994.89
2016-05-17T00:55:53.367Z,994.89
2016-05-17T00:56:53.588Z,994.88
2016-05-17T00:57:53.559Z,994.88
2016-05-17T00:58:53.562Z,994.87
2016-05-17T01:00:53.381Z,994.84
2016-05-17T01:01:53.368Z,994.78
2016-05-17T01:02:53.354Z,994.81
2016-05-17T01:03:53.576Z,994.81
2016-05-17T01:04:53.391Z,994.82
2016-05-17T01:05:53.769Z,994.79
2016-05-17T01:06:53.364Z,994.82
2016-05-17T01:07:53.368Z,994.78
2016-05-17T01:08:53.370Z,994.82
2016-05-17T01:09:53.358Z,994.8
2016-05-17T01:10:53.579Z,994.83
2016-05-17T01:11:53.581Z,994.8
2016-05-17T01:13:53.369Z,994.8
2016-05-17T01:14:53.574Z,994.76
2016-05-17T01:15:53.374Z,994.79
2016-05-17T01:16:53.377Z,994.76
2016-05-17T01:17:53.395Z,994.72
2016-05-17T01:20:53.606Z,994.7
2016-05-17T01:21:53.374Z,994.69
2016-05-17T01:22:53.580Z,994.67
2016-05-17T01:23:53.379Z,994.66
2016-05-17T01:24:53.382Z,994.66
2016-05-17T01:25:53.385Z,994.67
2016-05-17T01:26:53.388Z,994.66
2016-05-17T01:27:53.390Z,994.68
2016-05-17T01:28:53.612Z,994.64
2016-05-17T01:29:53.614Z,994.66
2016-05-17T01:30:53.632Z,994.63
2016-05-17T01:31:53.604Z,994.66
2016-05-17T01:32:53.403Z,994.63
2016-05-17T01:33:53.391Z,994.63
2016-05-17T01:34:53.409Z,994.63
2016-05-17T01:35:53.396Z,994.64
2016-05-17T01:37:53.417Z,994.64
2016-05-17T01:38:53.420Z,994.64
2016-05-17T01:39:53.438Z,994.64
2016-05-17T01:40:53.409Z,994.61
2016-05-17T01:41:53.412Z,994.58
2016-05-17T01:42:53.415Z,994.62
2016-05-17T01:43:53.417Z,994.58
2016-05-17T01:44:53.420Z,994.56
2016-05-17T01:45:53.438Z,994.57
2016-05-17T01:46:53.441Z,994.59
2016-05-17T01:47:53.663Z,994.52
2016-05-17T01:48:53.634Z,994.52
2016-05-17T01:49:53.434Z,994.53
2016-05-17T01:50:53.421Z,994.5
2016-05-17T01:51:53.814Z,994.51
2016-05-17T01:52:53.427Z,994.54
2016-05-17T01:53:53.444Z,994.5
2016-05-17T01:55:53.668Z,994.51
2016-05-17T01:56:53.437Z,994.47
2016-05-17T01:57:53.440Z,994.48
2016-05-17T01:58:53.443Z,994.46
2016-05-17T01:59:53.445Z,994.43
2016-05-17T02:00:53.838Z,994.41
2016-05-17T02:01:53.435Z,994.43
2016-05-17T02:02:53.453Z,994.45
2016-05-17T02:04:53.442Z,994.49
2016-05-17T02:05:53.649Z,994.42
2016-05-17T02:06:53.448Z,994.41
2016-05-17T02:07:53.451Z,994.41
2016-05-17T02:08:53.470Z,994.46
2016-05-17T02:09:53.441Z,994.45
2016-05-17T02:10:53.459Z,994.41
2016-05-17T02:12:53.464Z,994.41
2016-05-17T02:13:53.452Z,994.41
2016-05-17T02:14:53.455Z,994.4
2016-05-17T02:15:53.457Z,994.39
2016-05-17T02:16:53.460Z,994.42
2016-05-17T02:17:53.463Z,994.4
2016-05-17T02:18:53.886Z,994.37
2016-05-17T02:20:53.454Z,994.39
2016-05-17T02:21:53.457Z,994.35
2016-05-17T02:22:54.069Z,994.35
2016-05-17T02:23:53.463Z,994.33
2016-05-17T02:24:53.466Z,994.39
2016-05-17T02:25:53.687Z,994.37
2016-05-17T02:26:53.487Z,994.38
2016-05-17T02:27:53.474Z,994.37
2016-05-17T02:28:53.507Z,994.37
2016-05-17T02:30:53.873Z,994.37
2016-05-17T02:31:53.469Z,994.39
2016-05-17T02:32:53.471Z,994.37
2016-05-17T02:33:53.474Z,994.41
2016-05-17T02:34:53.476Z,994.43
2016-05-17T02:36:53.763Z,994.41
2016-05-17T02:37:53.485Z,994.39
2016-05-17T02:39:53.475Z,994.41
2016-05-17T02:40:53.681Z,994.4
2016-05-17T02:41:53.480Z,994.43
2016-05-17T02:43:53.516Z,994.45
2016-05-17T02:44:53.706Z,994.41
2016-05-17T02:45:53.491Z,994.47
2016-05-17T02:46:53.494Z,994.48
2016-05-17T02:47:53.481Z,994.48
2016-05-17T02:48:53.483Z,994.44
2016-05-17T02:49:53.501Z,994.42
2016-05-17T02:50:53.504Z,994.43
2016-05-17T02:51:54.039Z,994.46
2016-05-17T02:52:53.510Z,994.46
2016-05-17T02:53:53.716Z,994.46
2016-05-17T02:54:53.499Z,994.46
2016-05-17T02:55:53.486Z,994.45
2016-05-17T02:56:53.693Z,994.46
2016-05-17T02:57:53.507Z,994.48
2016-05-17T02:58:53.526Z,994.49
2016-05-17T02:59:53.497Z,994.45
2016-05-17T03:00:53.485Z,994.48
2016-05-17T03:01:53.487Z,994.42
2016-05-17T03:03:53.523Z,994.45
2016-05-17T03:04:53.495Z,994.45
2016-05-17T03:05:53.529Z,994.44
2016-05-17T03:06:53.719Z,994.44
2016-05-17T03:07:53.706Z,994.47
2016-05-17T03:08:53.506Z,994.41
2016-05-17T03:09:53.523Z,994.42
2016-05-17T03:10:53.526Z,994.4
2016-05-17T03:11:53.514Z,994.44
2016-05-17T03:12:53.704Z,994.45
2016-05-17T03:13:53.722Z,994.43
2016-05-17T03:14:53.522Z,994.39
2016-05-17T03:15:53.508Z,994.41
2016-05-17T03:16:53.497Z,994.42
2016-05-17T03:17:53.514Z,994.39
2016-05-17T03:18:53.517Z,994.37
2016-05-17T03:19:53.520Z,994.4
2016-05-17T03:20:53.522Z,994.4
2016-05-17T03:21:53.930Z,994.44
2016-05-17T03:22:53.699Z,994.47
2016-05-17T03:23:53.499Z,994.44
2016-05-17T03:24:53.705Z,994.4
2016-05-17T03:25:53.520Z,994.42
2016-05-17T03:26:53.538Z,994.46
2016-05-17T03:27:53.526Z,994.46
2016-05-17T03:29:53.921Z,994.43
2016-05-17T03:30:53.518Z,994.48
2016-05-17T03:31:53.520Z,994.5
2016-05-17T03:33:53.527Z,994.48
2016-05-17T03:34:53.513Z,994.49
2016-05-17T03:36:54.065Z,994.48
2016-05-17T03:37:53.724Z,994.51
2016-05-17T03:38:53.508Z,994.49
2016-05-17T03:39:53.512Z,994.5
2016-05-17T03:40:53.514Z,994.5
2016-05-17T03:41:53.517Z,994.5
2016-05-17T03:42:53.737Z,994.53
2016-05-17T03:43:53.756Z,994.54
2016-05-17T03:44:53.759Z,994.55
2016-05-17T03:45:53.933Z,994.53
2016-05-17T03:46:53.514Z,994.54
2016-05-17T03:47:53.516Z,994.57
2016-05-17T03:48:53.536Z,994.58
2016-05-17T03:49:53.538Z,994.6
2016-05-17T03:50:53.540Z,994.53
2016-05-17T03:52:53.546Z,994.54
2016-05-17T03:53:53.549Z,994.49
2016-05-17T03:54:53.519Z,994.52
2016-05-17T03:55:53.538Z,994.52
2016-05-17T03:56:53.541Z,994.52
2016-05-17T03:57:53.528Z,994.52
2016-05-17T03:58:53.546Z,994.5
2016-05-17T04:00:53.943Z,994.52
2016-05-17T04:01:53.538Z,994.51
2016-05-17T04:02:53.948Z,994.5
2016-05-17T04:03:53.747Z,994.54
2016-05-17T04:04:53.751Z,994.53
2016-05-17T04:05:53.535Z,994.53
2016-05-17T04:06:53.552Z,994.53
2016-05-17T04:07:53.571Z,994.56
2016-05-17T04:08:53.964Z,994.55
2016-05-17T04:09:53.560Z,994.56
2016-05-17T04:10:53.562Z,994.57
2016-05-17T04:11:53.565Z,994.57
2016-05-17T04:12:53.537Z,994.55
2016-05-17T04:13:53.556Z,994.55
2016-05-17T04:14:53.558Z,994.58
2016-05-17T04:15:53.576Z,994.59
2016-05-17T04:16:53.564Z,994.69
2016-05-17T04:17:53.753Z,994.65
2016-05-17T04:18:53.553Z,994.6
2016-05-17T04:19:53.555Z,994.59
2016-05-17T04:20:53.762Z,994.63
2016-05-17T04:21:53.765Z,994.65
2016-05-17T04:23:53.583Z,994.64
2016-05-17T04:24:53.585Z,994.66
2016-05-17T04:25:53.572Z,994.6
2016-05-17T04:26:53.777Z,994.67
2016-05-17T04:29:53.599Z,994.7
2016-05-17T04:30:53.585Z,994.66
2016-05-17T04:32:53.966Z,994.66
2016-05-17T04:33:53.578Z,994.66
2016-05-17T04:34:53.581Z,994.67
2016-05-17T04:35:53.598Z,994.67
2016-05-17T04:36:53.805Z,994.7
2016-05-17T04:37:53.574Z,994.67
2016-05-17T04:38:53.795Z,994.65
2016-05-17T04:39:53.595Z,994.67
2016-05-17T04:40:53.784Z,994.67
2016-05-17T04:41:53.787Z,994.65
2016-05-17T04:42:53.586Z,994.59
2016-05-17T04:43:53.589Z,994.64
2016-05-17T04:44:53.592Z,994.68
2016-05-17T04:45:54.017Z,994.72
2016-05-17T04:46:53.614Z,994.74
2016-05-17T04:47:53.600Z,994.73
2016-05-17T04:48:53.619Z,994.7
2016-05-17T04:49:53.605Z,994.68
2016-05-17T04:50:53.624Z,994.67
2016-05-17T04:51:53.626Z,994.65
2016-05-17T04:52:53.614Z,994.62
2016-05-17T04:53:53.617Z,994.64
2016-05-17T04:54:53.603Z,994.63
2016-05-17T04:55:53.606Z,994.64
2016-05-17T04:56:53.624Z,994.61
2016-05-17T04:57:53.627Z,994.68
2016-05-17T04:59:53.632Z,994.65
2016-05-17T05:00:53.619Z,994.7
2016-05-17T05:01:53.638Z,994.69
2016-05-17T05:02:53.657Z,994.71
2016-05-17T05:03:53.674Z,994.69
2016-05-17T05:04:53.630Z,994.7
2016-05-17T05:05:53.632Z,994.69
2016-05-17T05:06:53.651Z,994.7
2016-05-17T05:09:53.900Z,994.68
2016-05-17T05:10:54.117Z,994.71
2016-05-17T05:11:53.959Z,994.72
2016-05-17T05:12:53.817Z,994.7
2016-05-17T05:13:53.863Z,994.72
2016-05-17T05:14:53.879Z,994.77
2016-05-17T05:15:53.913Z,994.75
2016-05-17T05:16:53.932Z,994.72
2016-05-17T05:17:54.168Z,994.72
2016-05-17T05:18:53.984Z,994.74
2016-05-17T05:19:53.981Z,994.71
2016-05-17T05:20:54.005Z,994.67
2016-05-17T05:21:54.091Z,994.71
2016-05-17T05:22:54.614Z,994.69
2016-05-17T05:23:54.012Z,994.71
2016-05-17T05:24:54.206Z,994.72
2016-05-17T05:25:54.024Z,994.73
2016-05-17T05:26:54.029Z,994.79
2016-05-17T05:27:54.033Z,994.77
2016-05-17T05:28:54.257Z,994.8
2016-05-17T05:30:54.076Z,994.82
2016-05-17T05:31:54.048Z,994.75
2016-05-17T05:32:54.052Z,994.79
2016-05-17T05:33:54.072Z,994.8
2016-05-17T05:34:54.074Z,994.75
2016-05-17T05:36:54.268Z,994.75
2016-05-17T05:37:54.068Z,994.78
2016-05-17T05:38:54.274Z,994.8
2016-05-17T05:39:54.074Z,994.75
2016-05-17T05:40:54.092Z,994.77
2016-05-17T05:41:54.095Z,994.74
2016-05-17T05:42:54.098Z,994.77
2016-05-17T05:43:54.101Z,994.78
2016-05-17T05:44:54.103Z,994.74
2016-05-17T05:45:54.121Z,994.69
2016-05-17T05:46:54.234Z,994.76
2016-05-17T05:47:54.751Z,994.78
2016-05-17T05:48:54.115Z,994.77
2016-05-17T05:49:56.491Z,994.77
2016-05-17T05:50:54.337Z,994.78
2016-05-17T05:51:54.137Z,994.8
2016-05-17T05:52:54.734Z,994.77
2016-05-17T05:53:54.346Z,994.79
2016-05-17T05:54:54.365Z,994.79
2016-05-17T05:55:54.133Z,994.75
2016-05-17T05:56:54.151Z,994.78
2016-05-17T05:57:54.154Z,994.82
2016-05-17T06:00:54.568Z,994.8
2016-05-17T06:01:54.367Z,994.79
2016-05-17T06:02:54.167Z,994.84
2016-05-17T06:03:54.389Z,994.83
2016-05-17T06:04:54.391Z,994.83
2016-05-17T06:05:54.175Z,994.84
2016-05-17T06:06:54.318Z,994.87
2016-05-17T06:07:54.180Z,994.9
2016-05-17T06:08:54.183Z,994.88
2016-05-17T06:09:54.186Z,994.82
2016-05-17T06:10:54.188Z,994.84
2016-05-17T06:11:54.269Z,994.82
2016-05-17T06:12:54.396Z,994.81
2016-05-17T06:14:54.199Z,994.84
2016-05-17T06:15:54.202Z,994.84
2016-05-17T06:16:55.376Z,994.83
2016-05-17T06:17:54.207Z,994.82
2016-05-17T06:18:54.413Z,994.82
2016-05-17T06:19:54.212Z,994.82
2016-05-17T06:20:54.685Z,994.83
2016-05-17T06:21:54.421Z,994.82
2016-05-17T06:23:54.442Z,994.8
2016-05-17T06:25:54.464Z,994.89
2016-05-17T06:26:54.232Z,994.85
2016-05-17T06:27:54.251Z,994.85
2016-05-17T06:28:54.252Z,994.91
2016-05-17T06:29:54.271Z,994.86
2016-05-17T06:30:54.242Z,994.9
2016-05-17T06:31:54.245Z,994.9
2016-05-17T06:32:54.264Z,994.92
2016-05-17T06:34:54.253Z,994.96
2016-05-17T06:35:54.256Z,994.95
2016-05-17T06:36:54.259Z,994.98
2016-05-17T06:37:54.261Z,995.02
2016-05-17T06:38:54.264Z,994.99
2016-05-17T06:39:54.297Z,995.01
2016-05-17T06:40:54.300Z,995.03
2016-05-17T06:41:54.288Z,995.01
2016-05-17T06:42:54.275Z,995.01
2016-05-17T06:43:54.277Z,994.97
2016-05-17T06:45:54.518Z,995.01
2016-05-17T06:46:54.285Z,995.06
2016-05-17T06:47:54.288Z,995
2016-05-17T06:48:54.290Z,995.07
2016-05-17T06:49:54.324Z,995.07
2016-05-17T06:50:54.296Z,995.11
2016-05-17T06:51:54.924Z,995.07
2016-05-17T06:52:54.629Z,995.07
2016-05-17T06:53:54.335Z,995.06
2016-05-17T06:54:54.323Z,995.06
2016-05-17T06:56:54.312Z,995.13
2016-05-17T06:57:54.314Z,995.13
2016-05-17T06:58:54.318Z,995.11
2016-05-17T06:59:54.320Z,995.13
2016-05-17T07:00:54.323Z,995.11
2016-05-17T07:01:54.325Z,995.12
2016-05-17T07:02:54.328Z,995.06
2016-05-17T07:03:54.331Z,995.06
2016-05-17T07:04:54.349Z,995.11
2016-05-17T07:05:54.352Z,995.09
2016-05-17T07:07:54.545Z,995.1
2016-05-17T07:08:54.750Z,995.13
2016-05-17T07:09:54.550Z,995.17
2016-05-17T07:10:54.349Z,995.19
2016-05-17T07:11:54.368Z,995.24
2016-05-17T07:12:54.355Z,995.26
2016-05-17T07:13:54.374Z,995.2
2016-05-17T07:14:54.360Z,995.22
2016-05-17T07:15:54.379Z,995.25
2016-05-17T07:16:54.382Z,995.26
2016-05-17T07:17:54.385Z,995.4
2016-05-17T07:18:54.387Z,995.45
2016-05-17T07:19:54.999Z,995.43
2016-05-17T07:21:54.410Z,995.37
2016-05-17T07:22:54.398Z,995.36
2016-05-17T07:23:54.400Z,995.38
2016-05-17T07:24:54.388Z,995.42
2016-05-17T07:25:54.390Z,995.5
2016-05-17T07:26:54.409Z,995.38
2016-05-17T07:27:54.412Z,995.39
2016-05-17T07:28:54.414Z,995.42
2016-05-17T07:31:54.437Z,995.49
2016-05-17T07:32:54.831Z,995.53
2016-05-17T07:33:54.443Z,995.53
2016-05-17T07:34:54.633Z,995.54
2016-05-17T07:35:54.839Z,995.57
2016-05-17T07:36:54.451Z,995.54
2016-05-17T07:37:54.453Z,995.5
2016-05-17T07:38:54.456Z,995.54
2016-05-17T07:39:54.459Z,995.56
2016-05-17T07:40:54.461Z,995.56
2016-05-17T07:41:54.464Z,995.57
2016-05-17T07:42:54.686Z,995.54
2016-05-17T07:43:54.516Z,995.5
2016-05-17T07:44:54.488Z,995.53
2016-05-17T07:45:54.693Z,995.54
2016-05-17T07:46:54.494Z,995.53
2016-05-17T07:49:54.783Z,995.46
2016-05-17T07:50:54.535Z,995.58
2016-05-17T07:51:54.554Z,995.63
2016-05-17T07:52:54.557Z,995.62
2016-05-17T07:53:54.762Z,995.66
2016-05-17T07:54:54.562Z,995.64
2016-05-17T07:56:54.584Z,995.65
2016-05-17T08:00:54.625Z,995.39
2016-05-17T08:02:54.803Z,995.48
2016-05-17T08:05:54.638Z,995.36
2016-05-17T08:06:54.673Z,995.26
2016-05-17T08:07:54.644Z,995.16
2016-05-17T08:11:54.905Z,995.06
2016-05-17T08:12:54.673Z,995.04
2016-05-17T08:13:54.707Z,994.99
2016-05-17T08:16:54.902Z,994.96
2016-05-17T08:18:54.720Z,995.1
2016-05-17T08:19:55.082Z,995.02
2016-05-17T08:20:54.960Z,994.99
2016-05-17T08:21:54.931Z,995.04
2016-05-17T08:22:54.747Z,995.08
2016-05-17T08:23:54.952Z,995.13
2016-05-17T08:24:54.768Z,995.12
2016-05-17T08:25:54.770Z,995.12
2016-05-17T08:26:54.773Z,995.13
2016-05-17T08:27:55.479Z,995.17
2016-05-17T08:30:18.562Z,995.24
2016-05-17T08:31:18.393Z,995.25
2016-05-17T08:32:19.131Z,995.21
2016-05-17T08:33:18.805Z,995.22
2016-05-17T08:34:18.964Z,995.2
2016-05-17T08:39:18.728Z,995.47
2016-05-17T08:40:18.480Z,995.51
2016-05-17T08:41:18.608Z,995.52
2016-05-17T08:42:18.439Z,995.48
2016-05-17T08:43:18.660Z,995.51
2016-05-17T08:44:18.460Z,995.47
2016-05-17T08:45:18.508Z,995.47
2016-05-17T08:46:18.480Z,995.43
2016-05-17T08:47:18.483Z,995.36
2016-05-17T08:48:18.471Z,995.32
2016-05-17T08:49:18.754Z,995.31
2016-05-17T08:50:18.491Z,995.28
2016-05-17T08:51:18.493Z,995.3
2016-05-17T08:52:18.496Z,995.31
2016-05-17T08:53:18.499Z,995.26
2016-05-17T08:54:18.721Z,995.26
2016-05-17T08:55:18.505Z,995.28
2016-05-17T08:56:18.507Z,995.29
2016-05-17T08:59:18.546Z,995.36
2016-05-17T09:00:18.549Z,995.31
2016-05-17T09:01:18.756Z,995.32
2016-05-17T09:03:18.573Z,995.35
2016-05-17T09:05:18.562Z,995.39
2016-05-17T09:06:18.612Z,995.49
2016-05-17T09:07:18.614Z,995.56
2016-05-17T09:08:18.977Z,995.53
2016-05-17T09:09:18.605Z,995.44
2016-05-17T09:10:18.592Z,995.37
2016-05-17T09:11:18.611Z,995.21
2016-05-17T09:12:18.613Z,995.14
2016-05-17T09:13:18.819Z,995.08
2016-05-17T09:14:18.618Z,995.08
2016-05-17T09:15:18.622Z,995.14
2016-05-17T09:16:18.624Z,995.07
2016-05-17T09:17:18.720Z,995.07
2016-05-17T09:18:18.644Z,995.08
2016-05-17T09:19:18.647Z,995.14
2016-05-17T09:20:18.649Z,995.09
2016-05-17T09:21:18.668Z,995.11
2016-05-17T09:22:18.671Z,995.05
2016-05-17T09:23:18.674Z,995.09
2016-05-17T09:24:18.677Z,995.14
2016-05-17T09:25:18.695Z,995.22
2016-05-17T09:26:18.698Z,995.32
2016-05-17T09:27:18.701Z,995.32
2016-05-17T09:28:18.703Z,995.42
2016-05-17T09:29:18.706Z,995.43
2016-05-17T09:30:18.724Z,995.43
2016-05-17T09:31:18.726Z,995.34
2016-05-17T09:32:18.729Z,995.36
2016-05-17T09:33:18.732Z,995.38
2016-05-17T09:35:18.768Z,995.51
2016-05-17T09:37:18.790Z,995.53
2016-05-17T09:38:18.995Z,995.44
2016-05-17T09:39:18.998Z,995.43
2016-05-17T09:40:19.173Z,995.39
2016-05-17T09:41:18.972Z,995.4
2016-05-17T09:42:18.787Z,995.43
2016-05-17T09:43:18.837Z,995.45
2016-05-17T09:44:18.792Z,995.49
2016-05-17T09:45:18.795Z,995.51
2016-05-17T09:46:18.813Z,995.61
2016-05-17T09:47:18.816Z,995.68
2016-05-17T09:48:18.819Z,995.65
2016-05-17T09:49:18.837Z,995.7
2016-05-17T09:50:18.824Z,995.75
2016-05-17T09:51:19.233Z,995.75
2016-05-17T09:52:19.299Z,995.74
2016-05-17T09:53:18.864Z,995.71
2016-05-17T09:54:18.852Z,995.73
2016-05-17T09:55:18.853Z,995.69
2016-05-17T09:56:18.857Z,995.71
2016-05-17T09:57:18.860Z,995.72
2016-05-17T09:58:18.909Z,995.74
2016-05-17T09:59:18.880Z,995.7
2016-05-17T10:00:18.898Z,995.65
2016-05-17T10:01:18.901Z,995.63
2016-05-17T10:02:18.951Z,995.66
2016-05-17T10:03:18.906Z,995.72
2016-05-17T10:04:18.925Z,995.68
2016-05-17T10:05:18.928Z,995.73
2016-05-17T10:06:18.930Z,995.71
2016-05-17T10:07:19.120Z,995.63
2016-05-17T10:08:19.154Z,995.61
2016-05-17T10:09:19.157Z,995.65
2016-05-17T10:10:19.253Z,995.69
2016-05-17T10:11:18.975Z,995.72
2016-05-17T10:12:18.992Z,995.75
2016-05-17T10:13:19.012Z,995.76
2016-05-17T10:14:19.217Z,995.7
2016-05-17T10:15:19.267Z,995.86
2016-05-17T10:16:19.051Z,995.76
2016-05-17T10:17:19.038Z,995.69
2016-05-17T10:18:19.041Z,995.65
2016-05-17T10:19:19.059Z,995.63
2016-05-17T10:20:19.061Z,995.69
2016-05-17T10:21:19.080Z,995.7
2016-05-17T10:22:19.270Z,995.66
2016-05-17T10:23:19.226Z,995.58
2016-05-17T10:24:19.119Z,995.6
2016-05-17T10:25:19.152Z,995.51
2016-05-17T10:27:19.362Z,995.24
2016-05-17T10:28:19.160Z,995.38
2016-05-17T10:29:19.149Z,995.55
2016-05-17T10:30:19.229Z,995.43
2016-05-17T10:31:19.403Z,995.43
2016-05-17T10:32:19.235Z,995.42
2016-05-17T10:34:19.427Z,995.26
2016-05-17T10:35:19.634Z,995.25
2016-05-17T10:36:19.276Z,995.19
2016-05-17T10:37:19.231Z,995.18
2016-05-17T10:38:19.235Z,995.15
2016-05-17T10:39:19.253Z,995.17
2016-05-17T10:40:19.256Z,995.2
2016-05-17T10:41:19.275Z,995.32
2016-05-17T10:42:19.278Z,995.36
2016-05-17T10:43:19.811Z,995.45
2016-05-17T10:44:19.861Z,995.44
2016-05-17T10:45:19.317Z,995.49
2016-05-17T10:46:19.600Z,995.51
2016-05-17T10:47:19.525Z,995.59
2016-05-17T10:48:19.434Z,995.52
2016-05-17T10:49:19.374Z,995.5
2016-05-17T10:50:19.345Z,995.44
2016-05-17T10:51:19.552Z,995.42
2016-05-17T10:52:20.273Z,995.43
2016-05-17T10:53:19.603Z,995.51
2016-05-17T10:54:19.403Z,995.51
2016-05-17T10:55:20.390Z,995.53
2016-05-17T10:56:19.408Z,995.48
2016-05-17T10:57:19.599Z,995.52
2016-05-17T10:58:20.195Z,995.6
2016-05-17T10:59:19.432Z,995.62
2016-05-17T11:00:19.451Z,995.65
2016-05-17T11:01:19.454Z,995.65
2016-05-17T11:02:19.456Z,995.65
2016-05-17T11:03:19.459Z,995.64
2016-05-17T11:04:19.476Z,995.64
2016-05-17T11:05:19.479Z,995.69
2016-05-17T11:06:19.498Z,995.76
2016-05-17T11:07:19.500Z,995.72
2016-05-17T11:08:19.518Z,995.65
2016-05-17T11:09:19.521Z,995.7
2016-05-17T11:10:19.524Z,995.77
2016-05-17T11:11:19.542Z,995.76
2016-05-17T11:12:20.170Z,995.83
2016-05-17T11:13:19.594Z,995.88
2016-05-17T11:14:19.831Z,995.74
2016-05-17T11:15:19.584Z,995.72
2016-05-17T11:17:20.027Z,995.65
2016-05-17T11:18:19.639Z,995.6
2016-05-17T11:19:19.861Z,995.57
2016-05-17T11:20:19.630Z,995.56
2016-05-17T11:21:20.054Z,995.58
2016-05-17T11:22:19.649Z,995.64
2016-05-17T11:23:19.840Z,995.61
2016-05-17T11:24:19.672Z,995.65
2016-05-17T11:25:19.674Z,995.61
2016-05-17T11:26:19.692Z,995.55
2016-05-17T11:28:19.729Z,995.67
2016-05-17T11:29:19.716Z,995.66
2016-05-17T11:30:19.734Z,995.61
2016-05-17T11:31:19.955Z,995.65
2016-05-17T11:32:19.755Z,995.64
2016-05-17T11:33:19.774Z,995.6
2016-05-17T11:34:19.776Z,995.56
2016-05-17T11:35:19.795Z,995.54
2016-05-17T11:36:19.985Z,995.56
2016-05-17T11:38:19.817Z,995.52
2016-05-17T11:39:19.837Z,995.56
2016-05-17T11:40:19.854Z,995.59
2016-05-17T11:41:19.842Z,995.56
2016-05-17T11:42:19.860Z,995.53
2016-05-17T11:43:20.081Z,995.44
2016-05-17T11:44:20.209Z,995.44
2016-05-17T11:45:19.946Z,995.53
2016-05-17T11:46:19.917Z,995.38
2016-05-17T11:47:19.920Z,995.35
2016-05-17T11:48:19.939Z,995.29
2016-05-17T11:49:19.941Z,995.44
2016-05-17T11:50:20.163Z,995.56
2016-05-17T11:51:19.978Z,995.55
2016-05-17T11:52:19.980Z,995.51
2016-05-17T11:53:20.124Z,995.31
2016-05-17T11:54:20.267Z,995.13
2016-05-17T11:55:20.207Z,995.13
2016-05-17T11:56:20.007Z,995.09
2016-05-17T11:57:20.025Z,995.1
2016-05-17T11:58:20.231Z,995.25
2016-05-17T11:59:20.047Z,995.24
2016-05-17T12:00:20.441Z,995.2
2016-05-17T12:01:20.207Z,995.14
2016-05-17T12:02:20.085Z,995.21
2016-05-17T12:03:20.088Z,995.09
2016-05-17T12:04:20.107Z,995.14
2016-05-17T12:05:20.109Z,995.12
2016-05-17T12:06:20.113Z,995.14
2016-05-17T12:07:20.334Z,995.1
2016-05-17T12:08:20.398Z,995.03
2016-05-17T12:09:20.182Z,995.04
2016-05-17T12:10:20.201Z,995.06
2016-05-17T12:12:20.190Z,995.06
2016-05-17T12:13:20.772Z,994.97
2016-05-17T12:14:20.540Z,995.04
2016-05-17T12:15:20.214Z,995.05
2016-05-17T12:16:20.420Z,995.01
2016-05-17T12:17:20.611Z,994.98
2016-05-17T12:18:20.644Z,995.12
2016-05-17T12:19:20.241Z,995.08
2016-05-17T12:20:20.478Z,995.11
2016-05-17T12:21:20.278Z,995.12
2016-05-17T12:22:20.280Z,995.07
2016-05-17T12:23:20.283Z,995.13
2016-05-17T12:24:20.285Z,995.25
2016-05-17T12:25:20.413Z,995.37
2016-05-17T12:26:20.322Z,995.38
2016-05-17T12:27:20.325Z,995.35
2016-05-17T12:28:20.327Z,995.24
2016-05-17T12:29:20.502Z,995.16
2016-05-17T12:36:20.380Z,995.01
2016-05-17T12:37:20.507Z,994.95
2016-05-17T12:38:20.401Z,995.02
2016-05-17T12:39:20.404Z,994.95
2016-05-17T12:41:20.409Z,995.04
2016-05-17T12:42:20.428Z,995.04
2016-05-17T12:43:20.649Z,994.99
2016-05-17T12:45:20.654Z,995.11
2016-05-17T12:46:20.657Z,995.17
2016-05-17T12:47:20.660Z,995.27
2016-05-17T12:48:20.475Z,995.34
2016-05-17T12:49:20.664Z,995.38
2016-05-17T12:50:20.667Z,995.42
2016-05-17T12:51:20.483Z,995.41
2016-05-17T12:53:20.488Z,995.41
2016-05-17T12:54:20.507Z,995.39
2016-05-17T12:55:20.728Z,995.37
2016-05-17T12:56:20.716Z,995.39
2016-05-17T12:57:20.734Z,995.36
2016-05-17T12:58:20.752Z,995.33
2016-05-17T12:59:20.738Z,995.33
2016-05-17T13:00:20.538Z,995.32
2016-05-17T13:01:20.557Z,995.32
2016-05-17T13:02:20.560Z,995.32
2016-05-17T13:03:21.000Z,995.28
2016-05-17T13:04:20.580Z,995.25
2016-05-17T13:05:20.990Z,995.23
2016-05-17T13:06:20.790Z,995.23
2016-05-17T13:07:20.588Z,995.29
2016-05-17T13:08:20.607Z,995.33
2016-05-17T13:09:20.609Z,995.32
2016-05-17T13:10:20.628Z,995.35
2016-05-17T13:11:20.615Z,995.32
2016-05-17T13:12:20.634Z,995.36
2016-05-17T13:13:20.651Z,995.36
2016-05-17T13:14:20.857Z,995.24
2016-05-17T13:15:20.704Z,995.28
2016-05-17T13:16:20.676Z,995.27
2016-05-17T13:17:20.679Z,995.22
2016-05-17T13:18:20.681Z,995.05
2016-05-17T13:19:20.683Z,994.92
2016-05-17T13:20:20.686Z,994.79
2016-05-17T13:21:20.705Z,994.77
2016-05-17T13:22:20.708Z,994.76
2016-05-17T13:23:20.725Z,994.79
2016-05-17T13:24:20.728Z,994.83
2016-05-17T13:25:20.746Z,994.81
2016-05-17T13:26:20.750Z,994.85
2016-05-17T13:27:20.752Z,994.9
2016-05-17T13:28:20.755Z,994.94
2016-05-17T13:29:20.772Z,995.03
2016-05-17T13:30:20.775Z,995.15
2016-05-17T13:31:20.777Z,995.19
2016-05-17T13:32:20.796Z,995.14
2016-05-17T13:33:20.799Z,995.19
2016-05-17T13:34:20.802Z,995.25
2016-05-17T13:35:20.820Z,995.28
2016-05-17T13:36:21.026Z,995.26
2016-05-17T13:37:20.873Z,995.23
2016-05-17T13:38:20.844Z,995.25
2016-05-17T13:39:20.878Z,995.25
2016-05-17T13:40:20.881Z,995.3
2016-05-17T13:41:20.884Z,995.26
2016-05-17T13:42:20.871Z,995.21
2016-05-17T13:43:20.889Z,995.08
2016-05-17T13:44:20.892Z,995.1
2016-05-17T13:45:20.910Z,995.11
2016-05-17T13:46:20.912Z,995.06
2016-05-17T13:47:20.915Z,995.06
2016-05-17T13:48:21.121Z,994.96
2016-05-17T13:49:20.937Z,994.9
2016-05-17T13:50:20.939Z,994.97
2016-05-17T13:51:20.973Z,994.98
2016-05-17T13:52:20.959Z,994.88
2016-05-17T13:53:20.962Z,994.91
2016-05-17T13:54:20.965Z,994.96
2016-05-17T13:55:20.984Z,994.9
2016-05-17T13:56:21.002Z,994.92
2016-05-17T13:57:21.005Z,994.95
2016-05-17T13:58:20.991Z,994.94